createdAt,value
2018-03-27T00:01:47.220Z,20.68
2018-03-27T00:04:15.499Z,21.06
2018-03-27T00:06:43.777Z,22.44
2018-03-27T00:09:12.065Z,20.84
2018-03-27T00:11:57.143Z,21.48
2018-03-27T00:14:25.406Z,20.26
2018-03-27T00:16:53.699Z,21.64
2018-03-27T00:19:21.954Z,20.96
2018-03-27T00:21:50.255Z,22.92
2018-03-27T00:24:19.465Z,21.32
2018-03-27T00:26:59.796Z,21.44
2018-03-27T00:29:39.772Z,23.66
2018-03-27T00:32:23.830Z,20.84
2018-03-27T00:35:03.877Z,23.88
2018-03-27T00:37:45.950Z,23.28
2018-03-27T00:40:28.087Z,24.76
2018-03-27T00:42:56.388Z,23.16
2018-03-27T00:45:24.637Z,22.72
2018-03-27T00:47:52.909Z,23.92
2018-03-27T00:50:23.207Z,24.08
2018-03-27T00:52:51.454Z,23.06
2018-03-27T00:55:20.722Z,21.82
2018-03-27T00:57:48.969Z,23.90
2018-03-27T01:00:17.253Z,22.40
2018-03-27T01:02:45.497Z,23.72
2018-03-27T01:05:15.785Z,22.42
2018-03-27T01:07:43.309Z,22.96
2018-03-27T01:10:11.557Z,21.42
2018-03-27T01:12:39.834Z,21.72
2018-03-27T01:15:15.279Z,21.38
2018-03-27T01:17:43.547Z,24.12
2018-03-27T01:20:11.806Z,23.76
2018-03-27T01:22:40.085Z,25.16
2018-03-27T01:25:08.345Z,23.30
2018-03-27T01:27:36.631Z,22.82
2018-03-27T01:30:04.918Z,26.88
2018-03-27T01:32:33.185Z,23.40
2018-03-27T01:35:01.629Z,23.38
2018-03-27T01:37:29.917Z,25.00
2018-03-27T01:40:03.281Z,25.04
2018-03-27T01:42:31.550Z,24.58
2018-03-27T01:45:06.220Z,25.14
2018-03-27T01:47:34.526Z,23.14
2018-03-27T01:50:03.723Z,24.70
2018-03-27T01:52:31.999Z,22.84
2018-03-27T01:55:00.283Z,24.48
2018-03-27T01:57:28.529Z,23.90
2018-03-27T01:59:58.809Z,26.18
2018-03-27T02:02:27.054Z,25.74
2018-03-27T02:04:55.329Z,25.22
2018-03-27T02:07:37.953Z,25.36
2018-03-27T02:10:06.238Z,26.48
2018-03-27T02:12:45.841Z,24.44
2018-03-27T02:15:19.788Z,22.58
2018-03-27T02:17:53.838Z,27.30
2018-03-27T02:20:27.874Z,24.18
2018-03-27T02:23:13.855Z,26.70
2018-03-27T02:25:42.142Z,24.16
2018-03-27T02:28:13.558Z,22.42
2018-03-27T02:30:41.819Z,22.62
2018-03-27T02:33:10.101Z,22.88
2018-03-27T02:35:38.358Z,24.38
2018-03-27T02:38:12.886Z,24.60
2018-03-27T02:40:41.174Z,24.30
2018-03-27T02:43:15.087Z,24.70
2018-03-27T02:45:43.371Z,25.12
2018-03-27T02:48:13.568Z,26.08
2018-03-27T02:50:41.850Z,25.60
2018-03-27T02:53:13.664Z,24.96
2018-03-27T02:55:41.963Z,24.78
2018-03-27T02:58:10.222Z,26.00
2018-03-27T03:00:38.512Z,23.04
2018-03-27T03:03:06.078Z,21.56
2018-03-27T03:05:34.331Z,22.40
2018-03-27T03:08:02.628Z,23.24
2018-03-27T03:10:30.886Z,22.22
2018-03-27T03:12:59.162Z,23.70
2018-03-27T03:15:27.414Z,24.24
2018-03-27T03:17:57.633Z,22.84
2018-03-27T03:20:25.890Z,27.24
2018-03-27T03:22:54.137Z,22.24
2018-03-27T03:25:22.422Z,24.78
2018-03-27T03:27:50.701Z,25.54
2018-03-27T03:30:18.963Z,24.00
2018-03-27T03:32:47.242Z,25.28
2018-03-27T03:35:14.765Z,25.94
2018-03-27T03:37:43.014Z,23.50
2018-03-27T03:40:11.297Z,24.76
2018-03-27T03:42:47.651Z,25.36
2018-03-27T03:45:15.930Z,26.32
2018-03-27T03:47:50.157Z,25.10
2018-03-27T03:50:19.498Z,26.18
2018-03-27T03:52:49.765Z,24.26
2018-03-27T03:55:18.725Z,22.88
2018-03-27T03:57:47.001Z,23.70
2018-03-27T04:00:15.274Z,25.74
2018-03-27T04:02:42.767Z,26.34
2018-03-27T04:05:11.047Z,23.90
2018-03-27T04:07:39.338Z,25.16
2018-03-27T04:10:07.590Z,25.66
2018-03-27T04:12:35.074Z,24.32
2018-03-27T04:15:03.350Z,24.64
2018-03-27T04:17:30.862Z,24.74
2018-03-27T04:19:59.110Z,24.34
2018-03-27T04:22:27.394Z,23.52
2018-03-27T04:24:55.650Z,24.76
2018-03-27T04:27:23.911Z,23.48
2018-03-27T04:29:52.169Z,25.02
2018-03-27T04:32:20.430Z,22.32
2018-03-27T04:34:48.663Z,23.48
2018-03-27T04:37:16.925Z,24.16
2018-03-27T04:39:45.201Z,24.74
2018-03-27T04:42:13.454Z,24.66
2018-03-27T04:44:41.739Z,23.78
2018-03-27T04:47:09.998Z,24.92
2018-03-27T04:49:38.307Z,27.14
2018-03-27T04:52:06.561Z,25.98
2018-03-27T04:54:34.810Z,26.68
2018-03-27T04:57:03.107Z,26.52
2018-03-27T04:59:31.348Z,25.46
2018-03-27T05:01:59.631Z,24.28
2018-03-27T05:04:27.916Z,25.86
2018-03-27T05:06:56.169Z,25.26
2018-03-27T05:09:24.450Z,26.60
2018-03-27T05:11:52.746Z,25.94
2018-03-27T05:14:21.004Z,27.46
2018-03-27T05:16:50.498Z,27.70
2018-03-27T05:19:19.605Z,27.96
2018-03-27T05:21:48.719Z,31.22
2018-03-27T05:24:17.004Z,28.42
2018-03-27T05:26:45.261Z,28.92
2018-03-27T05:29:13.537Z,27.72
2018-03-27T05:31:41.826Z,31.86
2018-03-27T05:34:10.079Z,29.72
2018-03-27T05:36:38.362Z,30.34
2018-03-27T05:39:06.817Z,28.20
2018-03-27T05:41:35.075Z,28.02
2018-03-27T05:44:02.564Z,25.48
2018-03-27T05:46:30.841Z,26.98
2018-03-27T05:48:59.091Z,28.56
2018-03-27T05:51:27.381Z,28.60
2018-03-27T05:53:55.626Z,29.34
2018-03-27T05:56:23.882Z,28.00
2018-03-27T05:58:52.168Z,30.28
2018-03-27T06:01:20.438Z,29.98
2018-03-27T06:03:49.735Z,29.54
2018-03-27T06:06:18.676Z,29.08
2018-03-27T06:08:46.967Z,30.52
2018-03-27T06:11:15.242Z,30.78
2018-03-27T06:13:43.546Z,31.14
2018-03-27T06:16:11.800Z,31.20
2018-03-27T06:18:40.087Z,31.76
2018-03-27T06:21:08.351Z,31.58
2018-03-27T06:23:36.597Z,29.58
2018-03-27T06:26:04.892Z,32.18
2018-03-27T06:28:33.145Z,32.40
2018-03-27T06:31:01.426Z,33.64
2018-03-27T06:33:29.683Z,29.56
2018-03-27T06:35:57.973Z,32.60
2018-03-27T06:38:26.241Z,30.10
2018-03-27T06:40:54.499Z,30.64
2018-03-27T06:43:22.783Z,28.90
2018-03-27T06:45:50.270Z,29.46
2018-03-27T06:48:19.876Z,29.56
2018-03-27T06:50:48.126Z,31.16
2018-03-27T06:53:16.415Z,30.92
2018-03-27T06:55:44.703Z,32.48
2018-03-27T06:58:12.959Z,32.36
2018-03-27T07:00:41.223Z,33.46
2018-03-27T07:03:09.529Z,32.20
2018-03-27T07:05:37.874Z,32.34
2018-03-27T07:08:05.309Z,35.22
2018-03-27T07:10:33.657Z,37.42
2018-03-27T07:13:01.897Z,34.36
2018-03-27T07:15:30.158Z,34.62
2018-03-27T07:17:58.448Z,34.08
2018-03-27T07:20:26.703Z,36.12
2018-03-27T07:22:54.955Z,33.18
2018-03-27T07:25:23.239Z,35.12
2018-03-27T07:27:51.486Z,36.40
2018-03-27T07:30:20.917Z,34.98
2018-03-27T07:32:50.430Z,34.84
2018-03-27T07:35:19.691Z,32.30
2018-03-27T07:37:48.650Z,37.08
2018-03-27T07:40:16.906Z,35.14
2018-03-27T07:42:45.177Z,34.34
2018-03-27T07:45:13.426Z,32.62
2018-03-27T07:47:41.706Z,32.06
2018-03-27T07:50:09.986Z,31.10
2018-03-27T07:52:38.270Z,34.26
2018-03-27T07:55:06.518Z,33.08
2018-03-27T07:57:34.767Z,35.30
2018-03-27T08:00:03.038Z,31.22
2018-03-27T08:02:31.322Z,32.22
2018-03-27T08:04:59.582Z,28.90
2018-03-27T08:07:27.870Z,30.24
2018-03-27T08:09:56.117Z,31.72
2018-03-27T08:12:24.398Z,31.18
2018-03-27T08:14:52.642Z,30.98
2018-03-27T08:17:20.930Z,30.16
2018-03-27T08:19:50.083Z,29.48
2018-03-27T08:22:17.593Z,29.92
2018-03-27T08:24:45.869Z,31.22
2018-03-27T08:27:14.120Z,32.22
2018-03-27T08:29:42.441Z,30.70
2018-03-27T08:32:10.662Z,27.44
2018-03-27T08:34:38.963Z,31.02
2018-03-27T08:37:07.219Z,26.32
2018-03-27T08:39:35.465Z,29.48
2018-03-27T08:42:03.758Z,29.28
2018-03-27T08:44:32.010Z,28.62
2018-03-27T08:47:00.263Z,26.54
2018-03-27T08:49:28.543Z,32.46
2018-03-27T08:51:56.794Z,30.70
2018-03-27T08:54:25.089Z,25.96
2018-03-27T08:56:53.339Z,25.74
2018-03-27T08:59:21.629Z,22.58
2018-03-27T09:01:51.025Z,23.02
2018-03-27T09:04:20.507Z,20.58
2018-03-27T09:06:49.827Z,21.62
2018-03-27T09:09:18.070Z,20.44
2018-03-27T09:11:45.588Z,21.18
2018-03-27T09:14:13.882Z,20.60
2018-03-27T09:16:42.166Z,19.90
2018-03-27T09:19:10.417Z,20.06
2018-03-27T09:21:38.710Z,20.82
2018-03-27T09:24:06.966Z,19.58
2018-03-27T09:26:35.221Z,18.12
2018-03-27T09:29:03.514Z,18.76
2018-03-27T09:31:31.829Z,20.46
2018-03-27T09:34:00.123Z,17.54
2018-03-27T09:36:28.388Z,18.70
2018-03-27T09:38:56.677Z,16.90
2018-03-27T09:41:24.930Z,15.50
2018-03-27T09:43:53.223Z,15.62
2018-03-27T09:46:21.475Z,14.40
2018-03-27T09:48:50.921Z,14.98
2018-03-27T09:51:20.625Z,14.16
2018-03-27T09:53:48.914Z,13.10
2018-03-27T09:56:17.170Z,13.54
2018-03-27T09:58:45.466Z,14.84
2018-03-27T10:01:13.715Z,15.44
2018-03-27T10:03:41.982Z,15.40
2018-03-27T10:06:10.260Z,14.26
2018-03-27T10:08:38.506Z,15.22
2018-03-27T10:11:06.782Z,14.68
2018-03-27T10:13:35.030Z,14.94
2018-03-27T10:16:03.301Z,14.74
2018-03-27T10:18:31.591Z,13.36
2018-03-27T10:20:59.874Z,15.76
2018-03-27T10:23:28.155Z,14.72
2018-03-27T10:25:56.438Z,15.12
2018-03-27T10:28:24.735Z,16.80
2018-03-27T10:30:52.981Z,17.06
2018-03-27T10:33:21.228Z,16.44
2018-03-27T10:35:50.101Z,15.02
2018-03-27T10:38:19.004Z,15.70
2018-03-27T10:40:47.249Z,16.42
2018-03-27T10:43:15.534Z,16.22
2018-03-27T10:45:43.826Z,16.36
2018-03-27T10:48:12.109Z,14.30
2018-03-27T10:50:40.385Z,11.88
2018-03-27T10:53:08.638Z,13.56
2018-03-27T10:55:36.953Z,12.58
2018-03-27T10:58:05.209Z,13.38
2018-03-27T11:00:33.467Z,13.86
2018-03-27T11:03:01.763Z,11.68
2018-03-27T11:05:30.025Z,12.76
2018-03-27T11:07:58.288Z,12.54
2018-03-27T11:10:26.581Z,12.00
2018-03-27T11:12:54.863Z,12.00
2018-03-27T11:15:24.049Z,11.12
2018-03-27T11:17:52.315Z,12.56
2018-03-27T11:20:20.590Z,11.40
2018-03-27T11:22:49.342Z,12.10
2018-03-27T11:25:17.637Z,11.50
2018-03-27T11:27:45.898Z,11.24
2018-03-27T11:30:14.182Z,11.46
2018-03-27T11:32:42.472Z,12.44
2018-03-27T11:35:10.728Z,11.78
2018-03-27T11:37:39.010Z,12.30
2018-03-27T11:40:07.263Z,11.00
2018-03-27T11:42:35.548Z,10.94
2018-03-27T11:45:03.829Z,10.72
2018-03-27T11:47:32.116Z,11.62
2018-03-27T11:50:00.398Z,13.02
2018-03-27T11:52:28.690Z,12.76
2018-03-27T11:54:56.945Z,13.28
2018-03-27T11:57:25.198Z,12.54
2018-03-27T11:59:53.498Z,14.84
2018-03-27T12:02:21.786Z,13.70
2018-03-27T12:04:50.409Z,15.18
2018-03-27T12:07:18.633Z,14.70
2018-03-27T12:09:46.895Z,15.18
2018-03-27T12:12:15.198Z,15.64
2018-03-27T12:14:43.454Z,15.34
2018-03-27T12:17:11.725Z,16.02
2018-03-27T12:19:40.011Z,14.98
2018-03-27T12:22:08.267Z,15.14
2018-03-27T12:24:36.561Z,14.26
2018-03-27T12:27:04.841Z,14.70
2018-03-27T12:29:33.090Z,13.90
2018-03-27T12:32:01.375Z,14.44
2018-03-27T12:34:29.630Z,14.95
2018-03-27T12:36:58.054Z,14.42
2018-03-27T12:39:26.266Z,15.16
2018-03-27T12:41:53.751Z,14.44
2018-03-27T12:44:21.269Z,14.20
2018-03-27T12:46:50.312Z,15.80
2018-03-27T12:49:19.569Z,13.60
2018-03-27T12:51:49.030Z,13.30
2018-03-27T12:54:17.323Z,14.58
2018-03-27T12:56:45.579Z,14.02
2018-03-27T12:59:13.870Z,14.70
2018-03-27T13:01:42.142Z,14.02
2018-03-27T13:04:10.385Z,13.42
2018-03-27T13:06:38.674Z,13.40
2018-03-27T13:09:06.935Z,13.26
2018-03-27T13:11:35.234Z,15.08
2018-03-27T13:14:03.487Z,14.42
2018-03-27T13:16:31.771Z,15.14
2018-03-27T13:19:00.025Z,15.08
2018-03-27T13:21:28.320Z,14.90
2018-03-27T13:23:56.574Z,16.46
2018-03-27T13:26:24.825Z,16.46
2018-03-27T13:28:53.123Z,18.30
2018-03-27T13:31:21.382Z,19.54
2018-03-27T13:33:50.370Z,18.30
2018-03-27T13:36:19.555Z,17.16
2018-03-27T13:38:48.550Z,17.30
2018-03-27T13:41:16.797Z,17.24
2018-03-27T13:43:45.082Z,19.14
2018-03-27T13:46:13.362Z,19.56
2018-03-27T13:48:41.618Z,16.92
2018-03-27T13:51:09.902Z,17.06
2018-03-27T13:53:38.155Z,17.34
2018-03-27T13:56:06.438Z,17.74
2018-03-27T13:58:34.702Z,18.30
2018-03-27T14:01:02.998Z,17.90
2018-03-27T14:03:31.275Z,17.36
2018-03-27T14:05:59.562Z,17.46
2018-03-27T14:08:28.753Z,16.34
2018-03-27T14:10:57.041Z,18.48
2018-03-27T14:13:25.298Z,17.66
2018-03-27T14:15:53.581Z,18.18
2018-03-27T14:18:21.839Z,18.80
2018-03-27T14:20:50.489Z,19.68
2018-03-27T14:23:18.544Z,18.92
2018-03-27T14:25:46.843Z,20.06
2018-03-27T14:28:15.095Z,19.16
2018-03-27T14:30:43.387Z,19.64
2018-03-27T14:33:11.647Z,21.40
2018-03-27T14:35:39.935Z,19.14
2018-03-27T14:38:08.189Z,19.56
2018-03-27T14:40:36.490Z,21.02
2018-03-27T14:43:03.969Z,20.30
2018-03-27T14:45:32.244Z,21.28
2018-03-27T14:48:00.532Z,21.80
2018-03-27T14:50:32.127Z,22.75
2018-03-27T14:53:00.417Z,21.42
2018-03-27T14:55:29.642Z,22.68
2018-03-27T14:57:57.927Z,21.50
2018-03-27T15:00:38.209Z,21.28
2018-03-27T15:03:06.497Z,22.74
2018-03-27T15:05:41.366Z,20.50
2018-03-27T15:08:09.654Z,21.12
2018-03-27T15:10:38.851Z,21.52
2018-03-27T15:13:06.333Z,20.98
2018-03-27T15:15:37.831Z,23.36
2018-03-27T15:18:05.326Z,19.74
2018-03-27T15:20:33.621Z,22.72
2018-03-27T15:23:01.866Z,20.42
2018-03-27T15:25:31.056Z,22.18
2018-03-27T15:28:01.019Z,20.64
2018-03-27T15:30:29.942Z,22.86
2018-03-27T15:32:58.198Z,20.32
2018-03-27T15:35:26.482Z,21.60
2018-03-27T15:37:54.737Z,21.70
2018-03-27T15:40:26.914Z,21.44
2018-03-27T15:42:55.166Z,21.46
2018-03-27T15:45:31.619Z,20.86
2018-03-27T15:48:00.267Z,21.00
2018-03-27T15:50:47.927Z,22.18
2018-03-27T15:53:16.173Z,22.80
2018-03-27T15:55:44.461Z,25.30
2018-03-27T15:58:12.713Z,21.58
2018-03-27T16:00:40.965Z,22.24
2018-03-27T16:03:09.247Z,21.90
2018-03-27T16:05:42.222Z,24.02
2018-03-27T16:08:10.509Z,23.48
2018-03-27T16:10:42.330Z,23.00
2018-03-27T16:13:10.629Z,24.00
2018-03-27T16:15:42.521Z,21.72
2018-03-27T16:18:10.902Z,21.94
2018-03-27T16:20:39.152Z,22.36
2018-03-27T16:23:07.445Z,24.34
2018-03-27T16:25:35.706Z,23.14
2018-03-27T16:28:03.240Z,22.38
2018-03-27T16:30:31.486Z,23.00
2018-03-27T16:33:00.342Z,22.58
2018-03-27T16:35:31.421Z,22.30
2018-03-27T16:38:00.329Z,22.30
2018-03-27T16:40:28.602Z,22.62
2018-03-27T16:42:56.869Z,22.80
2018-03-27T16:45:26.061Z,22.64
2018-03-27T16:47:54.309Z,23.86
2018-03-27T16:50:22.603Z,20.90
2018-03-27T16:52:50.850Z,22.40
2018-03-27T16:55:22.126Z,22.10
2018-03-27T16:57:50.365Z,20.84
2018-03-27T17:00:18.637Z,18.48
2018-03-27T17:02:46.886Z,17.76
2018-03-27T17:05:15.162Z,16.96
2018-03-27T17:07:42.686Z,14.20
2018-03-27T17:10:10.937Z,13.64
2018-03-27T17:12:40.146Z,12.12
2018-03-27T17:15:08.422Z,14.28
2018-03-27T17:17:37.621Z,13.18
2018-03-27T17:20:05.875Z,11.96
2018-03-27T17:22:35.135Z,12.30
2018-03-27T17:25:03.406Z,11.04
2018-03-27T17:27:31.316Z,10.50
2018-03-27T17:30:00.368Z,9.42
2018-03-27T17:32:47.475Z,11.14
2018-03-27T17:35:15.749Z,10.52
2018-03-27T17:37:44.008Z,10.72
2018-03-27T17:40:12.306Z,10.20
2018-03-27T17:42:42.475Z,10.10
2018-03-27T17:45:16.865Z,9.62
2018-03-27T17:47:45.158Z,12.08
2018-03-27T17:50:13.442Z,10.50
2018-03-27T17:52:40.929Z,9.64
2018-03-27T17:55:09.260Z,11.16
2018-03-27T17:57:37.509Z,9.62
2018-03-27T18:00:06.770Z,10.44
2018-03-27T18:02:35.058Z,12.08
2018-03-27T18:05:04.271Z,11.52
2018-03-27T18:07:32.521Z,10.24
2018-03-27T18:10:02.697Z,9.48
2018-03-27T18:12:30.998Z,10.22
2018-03-27T18:15:00.259Z,9.56
2018-03-27T18:17:28.515Z,10.88
2018-03-27T18:19:56.778Z,10.16
2018-03-27T18:22:25.066Z,9.82
2018-03-27T18:24:53.321Z,9.58
2018-03-27T18:27:21.629Z,8.34
2018-03-27T18:29:55.244Z,8.92
2018-03-27T18:32:23.514Z,9.68
2018-03-27T18:34:51.786Z,9.90
2018-03-27T18:37:19.293Z,9.42
2018-03-27T18:39:47.554Z,9.72
2018-03-27T18:42:15.818Z,10.20
2018-03-27T18:44:44.102Z,9.68
2018-03-27T18:47:12.345Z,11.46
2018-03-27T18:49:40.602Z,11.08
2018-03-27T18:52:08.898Z,11.26
2018-03-27T18:54:37.146Z,10.04
2018-03-27T18:57:05.426Z,11.14
2018-03-27T18:59:33.689Z,12.20
2018-03-27T19:02:01.985Z,12.56
2018-03-27T19:04:30.922Z,12.82
2018-03-27T19:07:00.221Z,14.02
2018-03-27T19:09:28.478Z,14.12
2018-03-27T19:11:56.773Z,14.78
2018-03-27T19:14:25.032Z,14.84
2018-03-27T19:16:53.287Z,14.88
2018-03-27T19:19:21.553Z,15.58
2018-03-27T19:21:49.817Z,16.20
2018-03-27T19:24:18.099Z,14.74
2018-03-27T19:26:46.382Z,16.36
2018-03-27T19:29:14.633Z,16.52
2018-03-27T19:31:43.005Z,17.80
2018-03-27T19:34:11.257Z,18.04
2018-03-27T19:36:39.521Z,19.10
2018-03-27T19:39:07.831Z,19.58
2018-03-27T19:41:36.090Z,18.80
2018-03-27T19:44:04.357Z,19.96
2018-03-27T19:46:32.646Z,19.84
2018-03-27T19:49:06.753Z,21.92
2018-03-27T19:51:35.033Z,22.58
2018-03-27T19:54:03.284Z,20.54
2018-03-27T19:59:24.941Z,23.46
2018-03-27T20:01:53.218Z,25.80
2018-03-27T20:04:21.471Z,22.96
2018-03-27T20:06:49.727Z,23.80
2018-03-27T20:09:18.026Z,26.16
2018-03-27T20:11:46.274Z,25.90
2018-03-27T20:14:14.579Z,22.00
2018-03-27T20:16:42.847Z,24.82
2018-03-27T20:19:11.103Z,23.84
2018-03-27T20:21:39.390Z,25.86
2018-03-27T20:24:07.655Z,23.36
2018-03-27T20:26:35.945Z,24.70
2018-03-27T20:29:04.200Z,24.10
2018-03-27T20:31:32.465Z,25.00
2018-03-27T20:34:01.581Z,23.96
2018-03-27T20:36:30.521Z,25.72
2018-03-27T20:38:59.630Z,27.56
2018-03-27T20:41:27.918Z,23.98
2018-03-27T20:43:56.177Z,25.58
2018-03-27T20:46:24.463Z,25.82
2018-03-27T20:48:52.757Z,26.08
2018-03-27T20:51:21.018Z,26.26
2018-03-27T20:53:49.269Z,26.78
2018-03-27T20:56:17.557Z,26.56
2018-03-27T20:58:49.597Z,24.18
2018-03-27T21:01:17.851Z,24.78
2018-03-27T21:03:48.142Z,26.18
2018-03-27T21:06:16.399Z,25.92
2018-03-27T21:08:44.755Z,24.74
2018-03-27T21:11:13.082Z,25.88
2018-03-27T21:13:41.373Z,27.64
2018-03-27T21:16:09.627Z,27.28
2018-03-27T21:18:43.594Z,27.66
2018-03-27T21:21:11.889Z,31.04
2018-03-27T21:23:41.131Z,31.02
2018-03-27T21:26:09.416Z,32.28
2018-03-27T21:28:37.733Z,32.52
2018-03-27T21:31:06.017Z,29.26
2018-03-27T21:33:35.262Z,30.32
2018-03-27T21:36:03.532Z,29.20
2018-03-27T21:38:31.862Z,27.62
2018-03-27T21:41:00.859Z,29.48
2018-03-27T21:43:30.123Z,27.64
2018-03-27T21:45:58.378Z,27.94
2018-03-27T21:48:26.764Z,26.92
2018-03-27T21:50:55.034Z,26.32
2018-03-27T21:53:24.262Z,24.56
2018-03-27T21:55:52.550Z,25.82
2018-03-27T21:58:20.859Z,25.02
2018-03-27T22:00:49.140Z,26.30
2018-03-27T22:03:20.438Z,25.68
2018-03-27T22:05:48.713Z,26.40
2018-03-27T22:08:23.098Z,25.98
2018-03-27T22:10:51.380Z,23.30
2018-03-27T22:13:19.647Z,24.84
2018-03-27T22:15:47.934Z,24.90
2018-03-27T22:18:16.274Z,26.52
2018-03-27T22:20:44.561Z,23.96
2018-03-27T22:23:14.831Z,24.28
2018-03-27T22:25:43.089Z,22.78
2018-03-27T22:28:11.445Z,22.72
2018-03-27T22:30:39.699Z,24.20
2018-03-27T22:33:17.694Z,23.62
2018-03-27T22:35:45.973Z,23.98
2018-03-27T22:38:16.314Z,22.14
2018-03-27T22:40:44.562Z,22.88
2018-03-27T22:43:15.071Z,21.44
2018-03-27T22:45:43.349Z,21.84
2018-03-27T22:48:11.641Z,23.42
2018-03-27T22:50:39.916Z,23.60
2018-03-27T22:53:15.101Z,23.90
2018-03-27T22:55:43.350Z,22.64
2018-03-27T22:58:11.634Z,22.08
2018-03-27T23:00:39.909Z,21.70
2018-03-27T23:03:08.185Z,21.14
2018-03-27T23:05:36.440Z,21.34
2018-03-27T23:08:04.719Z,22.54
2018-03-27T23:10:33.050Z,21.06
2018-03-27T23:13:01.313Z,22.30
2018-03-27T23:15:30.907Z,21.62
2018-03-27T23:18:00.627Z,21.86
2018-03-27T23:20:32.342Z,22.92
2018-03-27T23:23:01.903Z,23.74
2018-03-27T23:25:31.527Z,19.80
2018-03-27T23:28:00.750Z,20.26
2018-03-27T23:30:29.059Z,22.26
2018-03-27T23:32:57.337Z,24.30
2018-03-27T23:35:25.586Z,23.76
2018-03-27T23:37:56.942Z,21.96
2018-03-27T23:40:25.204Z,22.54
2018-03-27T23:42:53.484Z,21.22
2018-03-27T23:45:21.734Z,23.00
2018-03-27T23:47:50.062Z,22.08
2018-03-27T23:50:18.319Z,21.84
2018-03-27T23:52:47.547Z,23.06
2018-03-27T23:55:15.826Z,21.40
2018-03-27T23:57:47.757Z,22.92
